Time;durP1;ratioP1;P1;durP2;ratioP2;P2;SDS_P1;SDS_P2;PMS_P1;PMS_P2;Temp;Humidity;BMP_temperature;BMP_pressure;BME280_temperature;BME280_humidity;BME280_pressure;Samples;Min_cycle;Max_cycle;Signal;HPM_P1;HPM_P2
2021/12/05 00:17:38;;;;;;;75.13;71.10;;;;;;;;;;5033126;28;20127;-71
2021/12/05 00:22:51;;;;;;;68.10;64.93;;;;;;;;;;5027845;28;20068;-71
2021/12/05 00:25:25;;;;;;;72.00;68.40;;;;;;;;;;5025973;28;20459;-71
2021/12/05 00:28:15;;;;;;;71.88;67.55;;;;;;;;;;5030521;28;20013;-72
2021/12/05 00:31:15;;;;;;;70.35;66.47;;;;;;;;;;5027114;28;20026;-71
2021/12/05 00:33:53;;;;;;;68.00;64.55;;;;;;;;;;5032159;28;20025;-71
2021/12/05 00:55:45;;;;;;;59.58;55.92;;;;;;;;;;5027106;28;20036;-71
2021/12/05 01:01:04;;;;;;;67.18;63.55;;;;;;;;;;5021330;28;20394;-71
2021/12/05 01:03:52;;;;;;;71.32;67.53;;;;;;;;;;5028189;28;20053;-71
2021/12/05 01:09:19;;;;;;;66.90;63.90;;;;;;;;;;5025088;28;20048;-71
2021/12/05 01:14:39;;;;;;;66.97;63.67;;;;;;;;;;5025582;28;20510;-70
2021/12/05 01:17:05;;;;;;;66.97;63.03;;;;;;;;;;5025569;28;20045;-71
2021/12/05 01:19:33;;;;;;;66.18;63.00;;;;;;;;;;5023968;28;20067;-71
2021/12/05 01:22:04;;;;;;;64.13;60.92;;;;;;;;;;5025585;28;20486;-71
2021/12/05 01:25:19;;;;;;;69.32;65.93;;;;;;;;;;5029526;28;20053;-70
2021/12/05 01:27:40;;;;;;;63.83;60.63;;;;;;;;;;5027216;28;20506;-71
2021/12/05 01:30:15;;;;;;;65.22;61.90;;;;;;;;;;5027638;28;20044;-70
2021/12/05 01:32:58;;;;;;;63.05;59.33;;;;;;;;;;5032729;28;20394;-70
2021/12/05 01:38:07;;;;;;;64.20;60.53;;;;;;;;;;5027552;28;20022;-70
2021/12/05 01:40:49;;;;;;;63.03;60.03;;;;;;;;;;5026646;28;20030;-70
2021/12/05 01:57:12;;;;;;;58.22;55.17;;;;;;;;;;5017508;28;20061;-69
2021/12/05 02:10:52;;;;;;;56.38;53.47;;;;;;;;;;5023483;28;20387;-69
2021/12/05 02:16:32;;;;;;;56.50;53.13;;;;;;;;;;5010065;28;20018;-69
2021/12/05 02:33:18;;;;;;;58.38;55.13;;;;;;;;;;5004204;28;20030;-70
2021/12/05 02:43:50;;;;;;;53.38;50.67;;;;;;;;;;5023989;28;20112;-70
2021/12/05 02:46:19;;;;;;;53.42;50.63;;;;;;;;;;5021697;28;20018;-70
2021/12/05 02:48:46;;;;;;;55.47;52.50;;;;;;;;;;5018550;28;20042;-69
2021/12/05 02:51:15;;;;;;;56.33;53.53;;;;;;;;;;5021410;28;20026;-70
2021/12/05 02:53:47;;;;;;;55.67;53.05;;;;;;;;;;5029468;28;20093;-70
2021/12/05 02:56:14;;;;;;;136.32;126.57;;;;;;;;;;5029139;28;20275;-70
2021/12/05 02:58:45;;;;;;;52.15;49.60;;;;;;;;;;5023693;28;20030;-70
2021/12/05 03:01:25;;;;;;;53.88;50.97;;;;;;;;;;5027638;28;20025;-70
2021/12/05 03:03:53;;;;;;;54.65;51.85;;;;;;;;;;5026734;28;20172;-70
2021/12/05 03:06:24;;;;;;;52.85;49.75;;;;;;;;;;5018854;28;20038;-69
2021/12/05 03:08:55;;;;;;;54.35;51.47;;;;;;;;;;5022774;28;20042;-69
2021/12/05 03:11:22;;;;;;;56.60;52.88;;;;;;;;;;5025510;28;20053;-69
2021/12/05 03:13:48;;;;;;;57.78;54.42;;;;;;;;;;5022723;28;20113;-69
2021/12/05 03:16:15;;;;;;;54.92;51.85;;;;;;;;;;5027795;28;20021;-69
2021/12/05 03:18:41;;;;;;;55.60;52.13;;;;;;;;;;5024082;28;20029;-69
2021/12/05 03:21:08;;;;;;;55.90;52.78;;;;;;;;;;5020285;28;20080;-70
2021/12/05 03:23:38;;;;;;;56.55;53.72;;;;;;;;;;5021227;28;20022;-69
2021/12/05 03:26:06;;;;;;;53.55;50.17;;;;;;;;;;5022655;28;20026;-69
2021/12/05 03:28:32;;;;;;;54.17;51.45;;;;;;;;;;5021731;28;20167;-70
2021/12/05 03:30:59;;;;;;;52.78;49.80;;;;;;;;;;5027168;28;20025;-70
2021/12/05 03:33:25;;;;;;;53.25;50.45;;;;;;;;;;5023109;28;20250;-69
2021/12/05 03:35:51;;;;;;;58.28;54.97;;;;;;;;;;5027529;28;20029;-69
2021/12/05 03:38:17;;;;;;;56.78;53.67;;;;;;;;;;5017207;28;20026;-69
2021/12/05 03:40:43;;;;;;;63.03;58.90;;;;;;;;;;5027647;28;20021;-69
2021/12/05 03:43:10;;;;;;;58.53;55.33;;;;;;;;;;5027168;28;20493;-69
2021/12/05 03:45:41;;;;;;;57.97;54.53;;;;;;;;;;5021323;28;20302;-69
2021/12/05 03:48:08;;;;;;;54.15;51.25;;;;;;;;;;5024598;28;20040;-69
2021/12/05 03:50:34;;;;;;;55.28;51.38;;;;;;;;;;5027989;28;20045;-69
2021/12/05 03:53:00;;;;;;;54.08;51.33;;;;;;;;;;5019365;28;20036;-69
2021/12/05 03:55:26;;;;;;;59.65;56.45;;;;;;;;;;5020043;28;20065;-69
2021/12/05 03:57:53;;;;;;;59.83;56.80;;;;;;;;;;5013808;28;20095;-69
2021/12/05 04:00:21;;;;;;;60.10;56.63;;;;;;;;;;5027206;28;20022;-69
2021/12/05 04:02:49;;;;;;;63.97;60.63;;;;;;;;;;5020401;28;20111;-69
2021/12/05 04:05:15;;;;;;;106.25;99.30;;;;;;;;;;5028761;28;20048;-69
2021/12/05 04:07:41;;;;;;;61.60;58.25;;;;;;;;;;5024189;28;20037;-69
2021/12/05 04:10:08;;;;;;;62.72;59.15;;;;;;;;;;5028759;28;20383;-69
2021/12/05 04:12:34;;;;;;;63.42;59.55;;;;;;;;;;5024983;28;20126;-69
2021/12/05 04:15:00;;;;;;;67.60;64.20;;;;;;;;;;5026762;28;20405;-69
2021/12/05 04:17:26;;;;;;;64.80;61.30;;;;;;;;;;5017558;28;20063;-69
2021/12/05 04:19:53;;;;;;;63.53;59.95;;;;;;;;;;5019397;28;20064;-69
2021/12/05 04:22:19;;;;;;;62.65;59.33;;;;;;;;;;5025352;28;20120;-69
2021/12/05 04:24:46;;;;;;;61.95;58.75;;;;;;;;;;5028148;28;20036;-69
2021/12/05 04:27:12;;;;;;;65.38;62.00;;;;;;;;;;5018823;28;20040;-69
2021/12/05 04:29:38;;;;;;;63.30;59.88;;;;;;;;;;5018873;28;20036;-68
2021/12/05 04:32:05;;;;;;;58.05;54.60;;;;;;;;;;5019967;28;20021;-69
2021/12/05 04:34:31;;;;;;;63.92;60.03;;;;;;;;;;5018549;28;20049;-68
2021/12/05 04:36:58;;;;;;;62.67;59.17;;;;;;;;;;5027423;28;20021;-68
2021/12/05 04:39:26;;;;;;;63.95;60.40;;;;;;;;;;5022822;28;20100;-68
2021/12/05 04:41:52;;;;;;;62.10;58.97;;;;;;;;;;5017413;28;20502;-68
2021/12/05 04:44:20;;;;;;;65.50;61.95;;;;;;;;;;5025290;28;20021;-69
2021/12/05 04:46:46;;;;;;;64.32;60.92;;;;;;;;;;5027213;28;20064;-68
2021/12/05 04:49:12;;;;;;;62.70;59.22;;;;;;;;;;5024413;28;20032;-68
2021/12/05 04:51:40;;;;;;;183.98;167.13;;;;;;;;;;5019743;28;20029;-68
2021/12/05 04:54:07;;;;;;;261.17;235.13;;;;;;;;;;5025647;28;20025;-69
2021/12/05 04:56:33;;;;;;;69.53;66.25;;;;;;;;;;5027565;28;20084;-69
2021/12/05 04:59:00;;;;;;;70.80;67.20;;;;;;;;;;5025372;28;20026;-69
2021/12/05 05:01:27;;;;;;;244.85;220.48;;;;;;;;;;5029984;28;20033;-69
2021/12/05 05:03:53;;;;;;;80.40;76.07;;;;;;;;;;5031552;28;20029;-69
2021/12/05 05:06:20;;;;;;;68.38;64.95;;;;;;;;;;5030314;28;20065;-69
2021/12/05 05:08:51;;;;;;;69.47;65.70;;;;;;;;;;5023683;28;20040;-69
2021/12/05 05:11:19;;;;;;;64.65;61.05;;;;;;;;;;5021179;28;20105;-68
2021/12/05 05:13:45;;;;;;;70.63;67.20;;;;;;;;;;5030911;28;20029;-69
2021/12/05 05:16:14;;;;;;;72.57;69.07;;;;;;;;;;5031460;28;20025;-69
2021/12/05 05:21:31;;;;;;;71.35;67.95;;;;;;;;;;5027988;28;20029;-68
2021/12/05 05:50:38;;;;;;;61.78;58.55;;;;;;;;;;5030141;28;20523;-69
2021/12/05 05:53:05;;;;;;;64.22;61.20;;;;;;;;;;5030027;28;20029;-69
2021/12/05 05:55:31;;;;;;;71.18;67.63;;;;;;;;;;5030294;28;20112;-69
2021/12/05 06:01:15;;;;;;;73.97;70.47;;;;;;;;;;5025793;28;20050;-68
2021/12/05 06:03:23;;;;;;;71.15;67.75;;;;;;;;;;5025687;28;20025;-69
2021/12/05 06:05:54;;;;;;;68.82;65.63;;;;;;;;;;5025886;28;20025;-69
2021/12/05 06:08:23;;;;;;;70.03;66.47;;;;;;;;;;5024217;28;20053;-69
2021/12/05 06:10:49;;;;;;;65.35;62.20;;;;;;;;;;5029507;28;20474;-69
2021/12/05 06:13:18;;;;;;;78.32;74.32;;;;;;;;;;5025619;28;20017;-69
2021/12/05 06:15:44;;;;;;;70.93;67.43;;;;;;;;;;5020820;28;20054;-68
2021/12/05 06:18:10;;;;;;;72.70;69.13;;;;;;;;;;5022006;28;20041;-69
2021/12/05 06:20:36;;;;;;;66.55;63.25;;;;;;;;;;5021795;28;20028;-69
2021/12/05 06:23:02;;;;;;;66.10;62.90;;;;;;;;;;5032288;28;20028;-68
2021/12/05 06:25:30;;;;;;;67.65;64.35;;;;;;;;;;5023538;28;20017;-69
2021/12/05 06:28:00;;;;;;;66.53;63.33;;;;;;;;;;5025806;28;20032;-69
2021/12/05 06:46:06;;;;;;;63.13;60.13;;;;;;;;;;5030171;28;20509;-69
2021/12/05 06:48:32;;;;;;;62.55;59.55;;;;;;;;;;5028707;28;20107;-69
2021/12/05 06:50:58;;;;;;;57.30;54.47;;;;;;;;;;5020998;28;20026;-68
2021/12/05 06:53:25;;;;;;;60.38;57.47;;;;;;;;;;5022692;28;20060;-69
2021/12/05 06:55:51;;;;;;;59.72;56.63;;;;;;;;;;5024725;28;20026;-69
2021/12/05 06:58:17;;;;;;;62.78;59.67;;;;;;;;;;5018759;28;20032;-68
2021/12/05 07:00:43;;;;;;;56.33;53.58;;;;;;;;;;5029619;28;20021;-69
2021/12/05 07:03:10;;;;;;;57.75;54.83;;;;;;;;;;5022488;28;20083;-69
2021/12/05 07:08:24;;;;;;;51.75;48.78;;;;;;;;;;5027842;28;20061;-69
2021/12/05 07:10:59;;;;;;;52.10;49.25;;;;;;;;;;5029728;28;20022;-69
2021/12/05 07:19:28;;;;;;;46.83;44.33;;;;;;;;;;5007495;28;20498;-69
2021/12/05 07:21:57;;;;;;;46.80;44.40;;;;;;;;;;4999701;28;20026;-69
2021/12/05 07:40:29;;;;;;;48.05;45.53;;;;;;;;;;5028349;28;20033;-68
2021/12/05 07:43:00;;;;;;;47.45;44.85;;;;;;;;;;5017393;28;20375;-68
2021/12/05 07:45:33;;;;;;;46.85;44.35;;;;;;;;;;5021062;28;20144;-68
2021/12/05 07:48:07;;;;;;;42.35;40.03;;;;;;;;;;5016489;28;20441;-69
2021/12/05 07:50:43;;;;;;;49.00;46.28;;;;;;;;;;5021146;28;20037;-68
2021/12/05 07:53:17;;;;;;;47.20;44.50;;;;;;;;;;5015078;28;20018;-68
2021/12/05 07:55:46;;;;;;;45.47;43.17;;;;;;;;;;5023104;28;20018;-69
2021/12/05 07:58:42;;;;;;;43.92;41.45;;;;;;;;;;5015914;28;20049;-69
2021/12/05 08:14:53;;;;;;;41.03;38.83;;;;;;;;;;5018149;28;20045;-69
2021/12/05 08:17:20;;;;;;;40.95;38.70;;;;;;;;;;5024490;28;20029;-69
2021/12/05 08:19:47;;;;;;;244.85;215.65;;;;;;;;;;5029375;28;20034;-69
2021/12/05 08:22:14;;;;;;;415.67;240.55;;;;;;;;;;5024855;28;20021;-69
2021/12/05 08:24:41;;;;;;;156.55;134.90;;;;;;;;;;5024563;28;20030;-69
2021/12/05 08:27:09;;;;;;;333.00;234.57;;;;;;;;;;5025658;28;20018;-69
2021/12/05 08:29:53;;;;;;;650.10;325.05;;;;;;;;;;5021674;28;20038;-69
2021/12/05 08:32:50;;;;;;;625.92;281.92;;;;;;;;;;5022617;28;20559;-68
2021/12/05 09:24:49;;;;;;;38.83;36.60;;;;;;;;;;5000159;28;20026;-73
2021/12/05 09:51:55;;;;;;;41.40;39.10;;;;;;;;;;5005519;28;20518;-72
2021/12/05 10:09:07;;;;;;;41.42;38.88;;;;;;;;;;5003659;28;20036;-73
2021/12/05 10:13:36;;;;;;;42.47;39.55;;;;;;;;;;5004469;28;20085;-73
2021/12/05 10:16:20;;;;;;;42.58;39.63;;;;;;;;;;5009324;28;20378;-73
2021/12/05 10:27:16;;;;;;;40.83;38.15;;;;;;;;;;5007741;28;20563;-73
2021/12/05 10:38:18;;;;;;;44.85;42.15;;;;;;;;;;5003855;28;20031;-73
2021/12/05 10:41:21;;;;;;;47.58;44.55;;;;;;;;;;5007485;28;20463;-73
2021/12/05 10:43:49;;;;;;;48.25;45.20;;;;;;;;;;4997529;28;20023;-73
2021/12/05 10:46:18;;;;;;;262.88;216.00;;;;;;;;;;5004170;28;20026;-73
2021/12/05 10:48:49;;;;;;;590.63;432.60;;;;;;;;;;4999111;28;20033;-73
2021/12/05 10:51:17;;;;;;;453.98;378.83;;;;;;;;;;5000583;28;20033;-74
2021/12/05 10:53:49;;;;;;;117.93;110.68;;;;;;;;;;5005437;28;20033;-73
2021/12/05 10:56:19;;;;;;;51.72;48.55;;;;;;;;;;5004149;28;20022;-73
2021/12/05 10:58:44;;;;;;;;;;;;;;;;;;5000391;28;20033;-75
2021/12/05 11:01:16;;;;;;;563.75;506.60;;;;;;;;;;5010623;28;20487;-73
2021/12/05 11:03:43;;;;;;;802.40;564.90;;;;;;;;;;5002137;28;20029;-74
2021/12/05 11:06:26;;;;;;;754.03;530.73;;;;;;;;;;5002807;28;20032;-74
2021/12/05 11:08:52;;;;;;;;;;;;;;;;;;5007087;28;20026;-75
2021/12/05 11:11:18;;;;;;;834.10;595.55;;;;;;;;;;5007436;28;19919;-74
2021/12/05 11:13:45;;;;;;;368.98;298.02;;;;;;;;;;5005383;28;20046;-73
2021/12/05 11:16:30;;;;;;;68.88;64.70;;;;;;;;;;5007212;28;20101;-73
2021/12/05 11:18:56;;;;;;;731.80;517.65;;;;;;;;;;5006695;28;20030;-73
2021/12/05 11:21:22;;;;;;;;;;;;;;;;;;5008571;28;25139;-75
2021/12/05 11:23:48;;;;;;;;;;;;;;;;;;5002650;28;20440;-74
2021/12/05 11:26:14;;;;;;;;;;;;;;;;;;5011111;28;19944;-75
2021/12/05 11:28:40;;;;;;;;;;;;;;;;;;5002219;28;20440;-73
2021/12/05 11:31:06;;;;;;;;;;;;;;;;;;5006313;28;19964;-75
2021/12/05 11:33:32;;;;;;;;;;;;;;;;;;5003980;28;19963;-75
2021/12/05 11:35:58;;;;;;;;;;;;;;;;;;5024021;28;19952;-75
2021/12/05 11:38:28;;;;;;;241.23;215.93;;;;;;;;;;5004988;28;20451;-73
2021/12/05 11:41:02;;;;;;;64.95;61.35;;;;;;;;;;5009308;28;20276;-73
2021/12/05 11:43:41;;;;;;;68.78;64.10;;;;;;;;;;5007730;28;20108;-73
2021/12/05 11:46:10;;;;;;;72.95;68.70;;;;;;;;;;5002010;28;20034;-73
2021/12/05 11:48:51;;;;;;;68.45;64.55;;;;;;;;;;5008811;28;20478;-72
2021/12/05 11:51:23;;;;;;;63.03;59.22;;;;;;;;;;5008458;28;20045;-72
2021/12/05 11:53:54;;;;;;;70.53;66.22;;;;;;;;;;5006445;28;20026;-73
2021/12/05 11:56:23;;;;;;;74.88;70.72;;;;;;;;;;4998886;28;20034;-73
2021/12/05 11:59:05;;;;;;;74.18;70.18;;;;;;;;;;5007366;28;20033;-73
2021/12/05 12:01:40;;;;;;;77.55;73.32;;;;;;;;;;5006621;28;20041;-73
2021/12/05 12:04:06;;;;;;;84.53;80.10;;;;;;;;;;5000592;28;20073;-73
2021/12/05 12:06:33;;;;;;;98.05;92.95;;;;;;;;;;5004958;28;20038;-73
2021/12/05 12:08:59;;;;;;;95.30;90.28;;;;;;;;;;4999191;28;20049;-73
2021/12/05 12:11:26;;;;;;;100.07;95.05;;;;;;;;;;5000242;28;20029;-73
2021/12/05 12:13:54;;;;;;;95.15;90.15;;;;;;;;;;5005931;28;20031;-73
2021/12/05 12:16:20;;;;;;;90.47;85.72;;;;;;;;;;5004150;28;20404;-73
2021/12/05 12:18:49;;;;;;;87.03;82.30;;;;;;;;;;5001228;28;20093;-73
2021/12/05 12:21:20;;;;;;;83.65;79.15;;;;;;;;;;5018903;28;20061;-73
2021/12/05 12:23:51;;;;;;;79.93;75.82;;;;;;;;;;4995350;28;20034;-73
2021/12/05 12:26:18;;;;;;;79.55;75.55;;;;;;;;;;4998395;28;20018;-73
2021/12/05 12:28:44;;;;;;;82.20;77.93;;;;;;;;;;4995138;28;20052;-73
2021/12/05 12:31:18;;;;;;;77.68;73.78;;;;;;;;;;5007102;28;20030;-73
2021/12/05 12:33:52;;;;;;;82.40;78.20;;;;;;;;;;5002931;28;20055;-73
2021/12/05 12:36:37;;;;;;;94.90;90.15;;;;;;;;;;5017736;28;20073;-73
2021/12/05 12:39:05;;;;;;;95.75;90.95;;;;;;;;;;5002905;28;20433;-73
2021/12/05 12:41:31;;;;;;;99.30;94.00;;;;;;;;;;4999082;28;21776;-73
2021/12/05 12:44:02;;;;;;;88.75;84.22;;;;;;;;;;4996781;28;20053;-73
2021/12/05 12:46:41;;;;;;;86.10;81.70;;;;;;;;;;4996983;28;20038;-73
2021/12/05 12:49:16;;;;;;;85.80;81.47;;;;;;;;;;4992170;28;20132;-73
2021/12/05 12:51:47;;;;;;;83.95;79.78;;;;;;;;;;5005933;28;20120;-73
2021/12/05 12:54:17;;;;;;;81.03;76.65;;;;;;;;;;4997624;28;20054;-72
2021/12/05 12:56:58;;;;;;;85.90;80.82;;;;;;;;;;5005274;28;20047;-73
2021/12/05 12:59:28;;;;;;;78.68;74.78;;;;;;;;;;4998325;28;20022;-74
2021/12/05 13:10:20;;;;;;;72.47;68.57;;;;;;;;;;4996605;28;20060;-74
2021/12/05 13:13:03;;;;;;;65.80;62.45;;;;;;;;;;4995454;28;20051;-74
2021/12/05 13:15:33;;;;;;;63.20;60.00;;;;;;;;;;5003525;28;20036;-74
2021/12/05 13:18:13;;;;;;;64.43;61.05;;;;;;;;;;4997734;28;20029;-74
2021/12/05 13:20:42;;;;;;;69.13;65.53;;;;;;;;;;4999041;28;20057;-74
2021/12/05 13:23:11;;;;;;;68.03;64.43;;;;;;;;;;5003099;28;20120;-74
2021/12/05 13:25:58;;;;;;;66.40;63.05;;;;;;;;;;5006354;28;20060;-74
2021/12/05 13:28:28;;;;;;;65.45;61.90;;;;;;;;;;4997602;28;20048;-74
2021/12/05 13:30:54;;;;;;;62.42;59.20;;;;;;;;;;5000941;28;20041;-74
2021/12/05 13:33:22;;;;;;;65.63;62.30;;;;;;;;;;4999833;28;20114;-74
2021/12/05 13:35:49;;;;;;;66.93;63.28;;;;;;;;;;5007498;28;20028;-74
2021/12/05 13:38:35;;;;;;;70.72;67.03;;;;;;;;;;4997185;28;20038;-75
2021/12/05 13:41:19;;;;;;;70.13;66.38;;;;;;;;;;4999859;28;20515;-74
2021/12/05 13:44:03;;;;;;;70.28;66.68;;;;;;;;;;5007502;28;20071;-74
2021/12/05 13:46:31;;;;;;;70.28;66.68;;;;;;;;;;5006824;28;20041;-74
2021/12/05 13:48:57;;;;;;;672.67;442.10;;;;;;;;;;5003866;28;20076;-75
2021/12/05 13:51:23;;;;;;;;;;;;;;;;;;5004918;28;20060;-75
2021/12/05 13:53:51;;;;;;;101.28;93.55;;;;;;;;;;5004612;28;20409;-75
2021/12/05 13:56:24;;;;;;;231.38;184.70;;;;;;;;;;4999223;28;20058;-74
2021/12/05 13:58:53;;;;;;;70.85;67.05;;;;;;;;;;4997472;28;20092;-74
2021/12/05 14:01:19;;;;;;;67.65;64.28;;;;;;;;;;5001859;28;20109;-74
2021/12/05 14:03:45;;;;;;;70.22;66.72;;;;;;;;;;5001595;28;20026;-74
2021/12/05 14:06:23;;;;;;;74.78;71.07;;;;;;;;;;5000915;28;20033;-74
2021/12/05 14:08:50;;;;;;;74.50;70.47;;;;;;;;;;4997324;28;20500;-74
2021/12/05 14:11:16;;;;;;;71.25;67.72;;;;;;;;;;5011193;28;20373;-74
2021/12/05 14:13:42;;;;;;;67.57;64.13;;;;;;;;;;5006925;28;20030;-74
2021/12/05 14:16:08;;;;;;;68.32;64.72;;;;;;;;;;5007828;28;20445;-74
2021/12/05 14:18:34;;;;;;;65.30;61.80;;;;;;;;;;5007524;28;20071;-74
2021/12/05 14:21:17;;;;;;;64.70;61.33;;;;;;;;;;5005795;28;20477;-75
2021/12/05 14:23:54;;;;;;;67.05;63.58;;;;;;;;;;5004431;28;20137;-74
2021/12/05 14:26:21;;;;;;;68.28;64.88;;;;;;;;;;5009777;28;20159;-74
2021/12/05 14:29:03;;;;;;;69.07;65.68;;;;;;;;;;5005644;28;20470;-74
2021/12/05 14:31:30;;;;;;;62.40;59.17;;;;;;;;;;5007338;28;20047;-74
2021/12/05 14:33:57;;;;;;;64.93;61.28;;;;;;;;;;5008878;28;20057;-74
2021/12/05 14:36:25;;;;;;;61.25;58.05;;;;;;;;;;5001943;28;20032;-74
2021/12/05 14:39:13;;;;;;;66.55;63.25;;;;;;;;;;5004788;28;20091;-74
2021/12/05 14:41:40;;;;;;;58.65;55.55;;;;;;;;;;5010456;28;20550;-74
2021/12/05 14:44:06;;;;;;;57.67;54.70;;;;;;;;;;5009478;28;20032;-74
2021/12/05 14:46:32;;;;;;;56.97;54.13;;;;;;;;;;5008280;28;20037;-74
2021/12/05 14:49:04;;;;;;;57.63;54.63;;;;;;;;;;4999371;28;20030;-74
2021/12/05 14:51:35;;;;;;;56.10;53.22;;;;;;;;;;5009591;28;20038;-74
2021/12/05 14:54:01;;;;;;;60.13;57.03;;;;;;;;;;5006255;28;20127;-74
2021/12/05 14:56:31;;;;;;;59.22;56.13;;;;;;;;;;5008500;28;20029;-74
2021/12/05 14:59:06;;;;;;;63.70;60.17;;;;;;;;;;5006692;28;20504;-74
2021/12/05 15:01:32;;;;;;;64.70;61.25;;;;;;;;;;5101288;22;20088;-70
2021/12/05 15:04:00;;;;;;;64.93;61.53;;;;;;;;;;4987783;28;20084;-70
2021/12/05 15:06:39;;;;;;;72.77;68.77;;;;;;;;;;4991269;28;20023;-70
2021/12/05 15:09:08;;;;;;;73.65;69.82;;;;;;;;;;4991557;28;20034;-70
2021/12/05 15:11:34;;;;;;;73.65;69.90;;;;;;;;;;4994571;28;20306;-70
2021/12/05 15:14:04;;;;;;;73.78;69.97;;;;;;;;;;4988683;28;20121;-70
2021/12/05 15:16:30;;;;;;;77.35;73.15;;;;;;;;;;4992119;28;20063;-70
2021/12/05 15:18:56;;;;;;;80.88;76.18;;;;;;;;;;4994970;28;20117;-70
2021/12/05 15:21:22;;;;;;;84.57;79.60;;;;;;;;;;5004019;28;20461;-69
2021/12/05 15:23:49;;;;;;;90.20;84.47;;;;;;;;;;4990238;28;20043;-69
2021/12/05 15:26:15;;;;;;;84.45;79.53;;;;;;;;;;4984609;28;20047;-69
2021/12/05 15:28:41;;;;;;;82.85;78.03;;;;;;;;;;4989940;28;20438;-70
2021/12/05 15:31:08;;;;;;;75.85;71.35;;;;;;;;;;5001164;28;20132;-69
2021/12/05 15:33:34;;;;;;;68.00;64.07;;;;;;;;;;4989562;28;20069;-69
2021/12/05 15:36:00;;;;;;;71.25;67.30;;;;;;;;;;4998201;28;20140;-70
2021/12/05 15:38:29;;;;;;;71.00;66.72;;;;;;;;;;5003052;28;20445;-70
2021/12/05 15:41:17;;;;;;;72.68;67.90;;;;;;;;;;5009596;28;20044;-70
2021/12/05 15:43:43;;;;;;;78.63;74.10;;;;;;;;;;4995356;28;20043;-69
2021/12/05 15:46:13;;;;;;;76.68;72.28;;;;;;;;;;4986691;28;20064;-70
2021/12/05 15:48:39;;;;;;;69.70;65.50;;;;;;;;;;5001758;28;20036;-70
2021/12/05 15:51:12;;;;;;;72.13;67.97;;;;;;;;;;4995459;28;20802;-70
2021/12/05 15:53:38;;;;;;;69.18;65.05;;;;;;;;;;5004306;28;20533;-70
2021/12/05 15:56:05;;;;;;;65.32;61.35;;;;;;;;;;5012534;28;20055;-70
2021/12/05 15:58:46;;;;;;;62.58;59.08;;;;;;;;;;4996450;28;20045;-70
2021/12/05 16:01:14;;;;;;;59.75;56.33;;;;;;;;;;4986311;28;20526;-70
2021/12/05 16:03:43;;;;;;;59.15;55.67;;;;;;;;;;5002452;28;20408;-69
2021/12/05 16:06:10;;;;;;;59.10;55.60;;;;;;;;;;4987628;28;20207;-69
2021/12/05 16:08:36;;;;;;;59.30;55.80;;;;;;;;;;4983029;28;20085;-69
2021/12/05 16:11:10;;;;;;;248.83;189.90;;;;;;;;;;4987598;28;20050;-70
2021/12/05 16:13:38;;;;;;;59.75;56.47;;;;;;;;;;4982471;28;20235;-70
2021/12/05 16:16:09;;;;;;;60.72;57.13;;;;;;;;;;4983687;28;20041;-70
2021/12/05 16:18:36;;;;;;;58.78;55.47;;;;;;;;;;4978271;28;20027;-70
2021/12/05 16:21:06;;;;;;;64.40;60.60;;;;;;;;;;4982638;28;20483;-70
2021/12/05 16:23:33;;;;;;;60.65;56.70;;;;;;;;;;4998923;28;20097;-70
2021/12/05 16:26:02;;;;;;;59.60;55.97;;;;;;;;;;4982835;28;20080;-70
2021/12/05 16:28:39;;;;;;;56.10;52.55;;;;;;;;;;5001317;28;20104;-70
2021/12/05 16:31:10;;;;;;;57.53;53.95;;;;;;;;;;4996438;28;20044;-70
2021/12/05 16:33:37;;;;;;;56.17;52.85;;;;;;;;;;4981886;28;20048;-70
2021/12/05 16:36:04;;;;;;;58.65;54.63;;;;;;;;;;4983015;28;20074;-70
2021/12/05 16:38:37;;;;;;;56.28;52.58;;;;;;;;;;4977116;28;20044;-70
2021/12/05 16:41:05;;;;;;;57.50;53.50;;;;;;;;;;4982170;28;20229;-70
2021/12/05 16:43:32;;;;;;;58.50;54.10;;;;;;;;;;4983620;28;20513;-70
2021/12/05 16:46:08;;;;;;;62.28;57.88;;;;;;;;;;4981705;28;20038;-70
2021/12/05 16:48:35;;;;;;;59.58;55.78;;;;;;;;;;4982100;28;20060;-70
2021/12/05 16:51:31;;;;;;;56.75;53.10;;;;;;;;;;4988768;28;20046;-70
2021/12/05 16:54:02;;;;;;;58.33;54.45;;;;;;;;;;4973796;28;20049;-70
2021/12/05 16:56:41;;;;;;;57.25;53.05;;;;;;;;;;5002368;28;20109;-71
2021/12/05 16:59:07;;;;;;;;;;;;;;;;;;4998735;28;20097;-72
2021/12/05 17:01:32;;;;;;;;;;;;;;;;;;4999360;28;19968;-72
2021/12/05 17:04:04;;;;;;;;;;;;;;;;;;4982176;28;20427;-72
2021/12/05 17:06:30;;;;;;;;;;;;;;;;;;4983532;28;19962;-72
2021/12/05 17:08:56;;;;;;;;;;;;;;;;;;4994549;28;19960;-72
2021/12/05 17:11:26;;;;;;;;;;;;;;;;;;4990243;28;19925;-72
2021/12/05 17:13:54;;;;;;;607.42;272.80;;;;;;;;;;4996210;28;20400;-70
2021/12/05 17:16:22;;;;;;;57.15;52.47;;;;;;;;;;4997440;28;20034;-70
2021/12/05 17:18:48;;;;;;;;;;;;;;;;;;4998186;28;20097;-72
2021/12/05 17:21:14;;;;;;;;;;;;;;;;;;4989951;28;20004;-72
2021/12/05 17:23:48;;;;;;;835.10;662.47;;;;;;;;;;4984695;28;20922;-70
2021/12/05 17:26:14;;;;;;;365.45;331.73;;;;;;;;;;5005510;28;20539;-70
2021/12/05 17:29:00;;;;;;;61.60;56.47;;;;;;;;;;4986747;28;20034;-70
2021/12/05 17:31:31;;;;;;;62.45;56.53;;;;;;;;;;4989571;28;20038;-70
2021/12/05 17:33:57;;;;;;;;;;;;;;;;;;4998330;28;20026;-72
2021/12/05 17:36:23;;;;;;;;;;;;;;;;;;4988772;28;20006;-72
2021/12/05 17:38:49;;;;;;;;;;;;;;;;;;4986437;28;19972;-72
2021/12/05 17:41:15;;;;;;;;;;;;;;;;;;4990620;28;19945;-72
2021/12/05 17:43:41;;;;;;;;;;;;;;;;;;5000859;28;20771;-71
2021/12/05 17:46:07;;;;;;;;;;;;;;;;;;4992048;28;19952;-71
2021/12/05 17:48:33;;;;;;;;;;;;;;;;;;4995396;28;20027;-71
2021/12/05 17:51:03;;;;;;;;;;;;;;;;;;4986826;28;20004;-71
2021/12/05 17:53:31;;;;;;;;;;;;;;;;;;4992798;28;19964;-71
2021/12/05 17:56:06;;;;;;;;;;;;;;;;;;4992058;28;19913;-71
2021/12/05 18:03:52;;;;;;;;;;;;;;;;;;4982807;28;19920;-72
2021/12/05 18:06:18;;;;;;;;;;;;;;;;;;4985176;28;19913;-72
2021/12/05 18:08:44;;;;;;;;;;;;;;;;;;4984899;28;20319;-72
2021/12/05 18:11:14;;;;;;;;;;;;;;;;;;4986379;28;20404;-72
2021/12/05 18:13:41;;;;;;;;;;;;;;;;;;5002002;28;20433;-72
2021/12/05 18:16:14;;;;;;;;;;;;;;;;;;4980466;28;19932;-72
2021/12/05 18:18:40;;;;;;;;;;;;;;;;;;4979334;28;19916;-72
2021/12/05 18:21:06;;;;;;;;;;;;;;;;;;4986030;28;19914;-72
2021/12/05 18:23:32;;;;;;;;;;;;;;;;;;4981386;28;19956;-72
2021/12/05 18:25:58;;;;;;;;;;;;;;;;;;4991789;28;19975;-72
2021/12/05 18:28:25;;;;;;;;;;;;;;;;;;4987426;28;19945;-72
2021/12/05 18:30:51;;;;;;;;;;;;;;;;;;4987449;28;19917;-72
2021/12/05 18:33:20;;;;;;;;;;;;;;;;;;5002611;28;19913;-72
2021/12/05 18:35:46;;;;;;;;;;;;;;;;;;4982323;28;19988;-72
2021/12/05 18:38:12;;;;;;;;;;;;;;;;;;4983963;28;19949;-72
2021/12/05 18:40:38;;;;;;;;;;;;;;;;;;5004577;28;19913;-72
2021/12/05 18:43:05;;;;;;;;;;;;;;;;;;4984319;28;19918;-72
2021/12/05 18:45:34;;;;;;;;;;;;;;;;;;4984192;28;19936;-72
2021/12/05 18:48:01;;;;;;;;;;;;;;;;;;4979389;28;20244;-72
2021/12/05 18:50:27;;;;;;;;;;;;;;;;;;4981090;28;19949;-72
2021/12/05 18:52:53;;;;;;;;;;;;;;;;;;4984637;28;19964;-72
2021/12/05 18:55:21;;;;;;;;;;;;;;;;;;4982147;28;19949;-72
2021/12/05 18:57:47;;;;;;;;;;;;;;;;;;4980324;28;19971;-72
2021/12/05 19:00:20;;;;;;;;;;;;;;;;;;5009226;28;19941;-72
2021/12/05 19:05:35;;;;;;;;;;;;;;;;;;4988213;28;19952;-72
2021/12/05 19:09:07;;;;;;;;;;;;;;;;;;4980601;28;19925;-72
2021/12/05 19:13:38;;;;;;;;;;;;;;;;;;4982989;28;19917;-72
2021/12/05 19:16:04;;;;;;;;;;;;;;;;;;4982441;28;19956;-72
2021/12/05 19:18:30;;;;;;;;;;;;;;;;;;4982420;28;19937;-72
2021/12/05 19:20:56;;;;;;;;;;;;;;;;;;4986776;28;19914;-72
2021/12/05 19:23:23;;;;;;;;;;;;;;;;;;4988443;28;19917;-70
2021/12/05 19:25:49;;;;;;;;;;;;;;;;;;4982698;28;19937;-71
2021/12/05 19:28:15;;;;;;;;;;;;;;;;;;4980041;28;19910;-72
2021/12/05 19:30:41;;;;;;;;;;;;;;;;;;4988500;28;19956;-71
2021/12/05 19:33:07;;;;;;;;;;;;;;;;;;4999836;28;19949;-72
2021/12/05 19:35:33;;;;;;;;;;;;;;;;;;4983905;28;19914;-71
2021/12/05 19:37:58;;;;;;;;;;;;;;;;;;4994194;28;20177;-72
2021/12/05 19:40:26;;;;;;;;;;;;;;;;;;4984608;28;19973;-71
2021/12/05 19:42:52;;;;;;;;;;;;;;;;;;4983199;28;20385;-71
2021/12/05 19:45:18;;;;;;;;;;;;;;;;;;4985706;28;19945;-71
2021/12/05 19:47:44;;;;;;;;;;;;;;;;;;4985544;28;20034;-72
2021/12/05 19:50:10;;;;;;;;;;;;;;;;;;4985441;28;20465;-71
2021/12/05 19:52:36;;;;;;;;;;;;;;;;;;4980823;28;19925;-71
2021/12/05 19:55:01;;;;;;;;;;;;;;;;;;4981143;28;19918;-71
2021/12/05 19:57:27;;;;;;;;;;;;;;;;;;4976681;28;19945;-72
2021/12/05 19:59:53;;;;;;;;;;;;;;;;;;4980023;28;20039;-72
2021/12/05 20:02:19;;;;;;;;;;;;;;;;;;4987698;28;19952;-72
2021/12/05 20:04:47;;;;;;;;;;;;;;;;;;5006873;28;19956;-72
2021/12/05 20:07:13;;;;;;;;;;;;;;;;;;4997067;28;19914;-72
2021/12/05 20:09:39;;;;;;;;;;;;;;;;;;4986886;28;20008;-72
2021/12/05 20:12:05;;;;;;;;;;;;;;;;;;4980276;28;20350;-71